Estación Meteorológica Peña el Pijo (Robertgarden) [ 02/03/23 04:51:02 CET ]

Fecha Hora Presion(HPa) Temp (°C) Humedad % Rocio (°C) Viento ( m/s) Direccion Lluvia 1Hora(mm) Lluvia 24H(mm) LLuvia Total(mm)
2010-Feb-25 01:01:18 1007.200 7.2 70 2.1         82.88
2010-Feb-25 02:03:19 1007.000 4.3 77 0.6         82.88
2010-Feb-25 03:01:16 1006.700 5.2 79 1.8         82.88
2010-Feb-25 04:01:12 1005.700 3.9 83 1.3         82.88
2010-Feb-25 05:01:12 1005.100 3.2 84 0.7         82.88
2010-Feb-25 06:01:18 1005.200 1.8 87 -0.2         82.88
2010-Feb-25 07:01:17 1004.600 0.8 88 -1.0         82.88
2010-Feb-25 08:01:17 1004.300 3.1 91 1.8         82.88
2010-Feb-25 09:01:14 1004.000 5.6 84 3.1         82.88
2010-Feb-25 10:01:14 1003.600 11.5 55 2.7         82.88
2010-Feb-25 11:01:17 1003.700 13.5 41 0.5         82.88
2010-Feb-25 12:01:18 1002.800 15.6 40 2.0 0.9 ESE     82.88
2010-Feb-25 13:01:12 1001.900 17.0 49 6.2 3.1 W     82.88
2010-Feb-25 14:01:11 1001.000 16.6 52 6.7 2.7 E     82.88
2010-Feb-25 15:01:13 1001.400 14.6 59 6.7 3.9 ESE     82.88
2010-Feb-25 16:01:12 1001.700 14.7 61 7.2 2.0 NE     82.88
2010-Feb-25 17:01:12 1002.000 11.3 71 6.3 1.2 ESE     82.88
2010-Feb-25 18:01:12 1001.500 11.6 71 6.5 1.0 SE     82.88
2010-Feb-25 19:01:14 1001.300 11.4 73 6.7         82.88
2010-Feb-25 20:01:17 1001.600 11.5 71 6.4         82.88
2010-Feb-25 21:01:11 1001.600 11.5 68 5.8         82.88
2010-Feb-25 22:01:16 1002.000 11.8 66 5.6         82.88
2010-Feb-25 23:01:13 1002.500 11.8 67 5.8 3.6 SSE     82.88

Temperatura Máxima:17°    Temperatura Mínima:
Presión Máxima:1007.200 Hpa    Presión Mínima:1001.000 Hpa


Volver